Terminal Aerodrome Forecast
Issued by NWS Tulsa, OK

Home | Current Version | Previous Version | Text Only | Print | Product List | Glossary On
Versions: 1 2 3 4 5 6 7 8 9 10 11 12 13 14 15 16 17
000
FTUS44 KTSA 221700
TAFFSM
TAF
KFSM 221726Z 2218/2318 08012KT P6SM BKN100
     FM221900 VRB03KT 4SM RA BR FEW050 BKN080
     FM222300 09005KT P6SM OVC050
      TEMPO 2223/2302 6SM -RA BR BKN050
     FM230200 09005KT P6SM OVC050 PROB30 2312/2318 4SM -TSRA
      BKN030CB=

USA.gov is the U.S. government's official web portal to all federal, state and local government web resources and services.